sensor_id;sensor_type;location;lat;lon;timestamp;P1;durP1;ratioP1;P2;durP2;ratioP2
60665;SDS011;59128;44.642;21.188;2024-03-08T00:00:13;21.63;;;17.25;;
60665;SDS011;59128;44.642;21.188;2024-03-08T00:02:39;27.42;;;20.63;;
60665;SDS011;59128;44.642;21.188;2024-03-08T00:05:06;26.35;;;21.00;;
60665;SDS011;59128;44.642;21.188;2024-03-08T00:07:35;22.17;;;17.48;;
60665;SDS011;59128;44.642;21.188;2024-03-08T00:10:05;26.10;;;20.85;;
60665;SDS011;59128;44.642;21.188;2024-03-08T00:12:43;27.20;;;22.27;;
60665;SDS011;59128;44.642;21.188;2024-03-08T00:15:16;28.02;;;21.20;;
60665;SDS011;59128;44.642;21.188;2024-03-08T00:17:43;26.13;;;20.10;;
60665;SDS011;59128;44.642;21.188;2024-03-08T00:20:13;25.23;;;19.38;;
60665;SDS011;59128;44.642;21.188;2024-03-08T00:22:39;26.70;;;21.10;;
60665;SDS011;59128;44.642;21.188;2024-03-08T00:25:06;25.13;;;20.63;;
60665;SDS011;59128;44.642;21.188;2024-03-08T00:27:36;31.52;;;25.00;;
60665;SDS011;59128;44.642;21.188;2024-03-08T00:30:03;33.85;;;25.70;;
60665;SDS011;59128;44.642;21.188;2024-03-08T00:32:30;32.88;;;25.17;;
60665;SDS011;59128;44.642;21.188;2024-03-08T00:35:00;36.42;;;28.42;;
60665;SDS011;59128;44.642;21.188;2024-03-08T00:37:32;29.77;;;23.13;;
60665;SDS011;59128;44.642;21.188;2024-03-08T00:39:59;39.83;;;29.63;;
60665;SDS011;59128;44.642;21.188;2024-03-08T00:42:25;29.83;;;24.50;;
60665;SDS011;59128;44.642;21.188;2024-03-08T00:44:51;33.00;;;25.17;;
60665;SDS011;59128;44.642;21.188;2024-03-08T00:47:18;27.90;;;22.00;;
60665;SDS011;59128;44.642;21.188;2024-03-08T00:49:44;33.35;;;25.98;;
60665;SDS011;59128;44.642;21.188;2024-03-08T00:52:11;33.03;;;25.92;;
60665;SDS011;59128;44.642;21.188;2024-03-08T00:54:38;35.55;;;27.20;;
60665;SDS011;59128;44.642;21.188;2024-03-08T00:57:04;31.52;;;23.75;;
60665;SDS011;59128;44.642;21.188;2024-03-08T00:59:31;44.30;;;32.20;;
60665;SDS011;59128;44.642;21.188;2024-03-08T01:01:58;31.57;;;23.40;;
60665;SDS011;59128;44.642;21.188;2024-03-08T01:04:25;32.33;;;24.42;;
60665;SDS011;59128;44.642;21.188;2024-03-08T01:06:54;34.03;;;25.83;;
60665;SDS011;59128;44.642;21.188;2024-03-08T01:09:21;37.83;;;28.38;;
60665;SDS011;59128;44.642;21.188;2024-03-08T01:11:47;35.63;;;26.45;;
60665;SDS011;59128;44.642;21.188;2024-03-08T01:14:13;35.47;;;26.48;;
60665;SDS011;59128;44.642;21.188;2024-03-08T01:16:39;44.20;;;31.42;;
60665;SDS011;59128;44.642;21.188;2024-03-08T01:19:06;30.40;;;23.60;;
60665;SDS011;59128;44.642;21.188;2024-03-08T01:21:32;34.55;;;25.52;;
60665;SDS011;59128;44.642;21.188;2024-03-08T01:23:58;45.42;;;31.63;;
60665;SDS011;59128;44.642;21.188;2024-03-08T01:26:24;41.90;;;28.30;;
60665;SDS011;59128;44.642;21.188;2024-03-08T01:28:50;48.22;;;33.92;;
60665;SDS011;59128;44.642;21.188;2024-03-08T01:31:16;42.83;;;30.95;;
60665;SDS011;59128;44.642;21.188;2024-03-08T01:33:42;44.42;;;30.00;;
60665;SDS011;59128;44.642;21.188;2024-03-08T01:36:08;37.45;;;27.70;;
60665;SDS011;59128;44.642;21.188;2024-03-08T01:38:34;52.63;;;37.13;;
60665;SDS011;59128;44.642;21.188;2024-03-08T01:41:01;48.43;;;33.07;;
60665;SDS011;59128;44.642;21.188;2024-03-08T01:43:28;56.70;;;41.53;;
60665;SDS011;59128;44.642;21.188;2024-03-08T01:45:55;53.10;;;37.30;;
60665;SDS011;59128;44.642;21.188;2024-03-08T01:48:26;51.05;;;35.25;;
60665;SDS011;59128;44.642;21.188;2024-03-08T01:50:53;40.55;;;28.08;;
60665;SDS011;59128;44.642;21.188;2024-03-08T01:53:19;41.20;;;29.05;;
60665;SDS011;59128;44.642;21.188;2024-03-08T01:55:49;40.17;;;28.08;;
60665;SDS011;59128;44.642;21.188;2024-03-08T01:58:15;50.38;;;35.28;;
60665;SDS011;59128;44.642;21.188;2024-03-08T02:00:44;64.32;;;44.08;;
60665;SDS011;59128;44.642;21.188;2024-03-08T02:03:10;41.03;;;30.40;;
60665;SDS011;59128;44.642;21.188;2024-03-08T02:05:37;32.63;;;24.20;;
60665;SDS011;59128;44.642;21.188;2024-03-08T02:08:04;52.97;;;37.50;;
60665;SDS011;59128;44.642;21.188;2024-03-08T02:10:32;46.40;;;32.97;;
60665;SDS011;59128;44.642;21.188;2024-03-08T02:12:58;39.60;;;28.80;;
60665;SDS011;59128;44.642;21.188;2024-03-08T02:15:25;43.88;;;30.15;;
60665;SDS011;59128;44.642;21.188;2024-03-08T02:17:51;48.33;;;34.05;;
60665;SDS011;59128;44.642;21.188;2024-03-08T02:20:18;45.08;;;31.42;;
60665;SDS011;59128;44.642;21.188;2024-03-08T02:22:45;30.40;;;24.08;;
60665;SDS011;59128;44.642;21.188;2024-03-08T02:25:11;31.63;;;22.80;;
60665;SDS011;59128;44.642;21.188;2024-03-08T02:27:37;32.88;;;25.17;;
60665;SDS011;59128;44.642;21.188;2024-03-08T02:30:03;34.72;;;26.00;;
60665;SDS011;59128;44.642;21.188;2024-03-08T02:32:30;34.60;;;24.90;;
60665;SDS011;59128;44.642;21.188;2024-03-08T02:34:57;45.30;;;31.88;;
60665;SDS011;59128;44.642;21.188;2024-03-08T02:37:27;48.85;;;34.22;;
60665;SDS011;59128;44.642;21.188;2024-03-08T02:39:53;52.20;;;37.77;;
60665;SDS011;59128;44.642;21.188;2024-03-08T02:42:20;38.60;;;27.80;;
60665;SDS011;59128;44.642;21.188;2024-03-08T02:44:46;38.50;;;27.63;;
60665;SDS011;59128;44.642;21.188;2024-03-08T02:47:12;43.80;;;31.50;;
60665;SDS011;59128;44.642;21.188;2024-03-08T02:49:38;36.17;;;26.00;;
60665;SDS011;59128;44.642;21.188;2024-03-08T02:52:04;44.83;;;31.33;;
60665;SDS011;59128;44.642;21.188;2024-03-08T02:54:30;40.35;;;28.73;;
60665;SDS011;59128;44.642;21.188;2024-03-08T02:56:56;38.40;;;26.98;;
60665;SDS011;59128;44.642;21.188;2024-03-08T02:59:22;42.35;;;31.33;;
60665;SDS011;59128;44.642;21.188;2024-03-08T03:01:48;30.52;;;22.73;;
60665;SDS011;59128;44.642;21.188;2024-03-08T03:04:15;30.67;;;23.98;;
60665;SDS011;59128;44.642;21.188;2024-03-08T03:06:41;39.60;;;29.53;;
60665;SDS011;59128;44.642;21.188;2024-03-08T03:09:07;29.67;;;23.45;;
60665;SDS011;59128;44.642;21.188;2024-03-08T03:11:35;32.25;;;25.15;;
60665;SDS011;59128;44.642;21.188;2024-03-08T03:14:02;28.40;;;22.42;;
60665;SDS011;59128;44.642;21.188;2024-03-08T03:16:29;34.40;;;25.30;;
60665;SDS011;59128;44.642;21.188;2024-03-08T03:18:55;41.05;;;30.65;;
60665;SDS011;59128;44.642;21.188;2024-03-08T03:21:23;42.38;;;32.30;;
60665;SDS011;59128;44.642;21.188;2024-03-08T03:23:50;33.50;;;25.33;;
60665;SDS011;59128;44.642;21.188;2024-03-08T03:26:16;32.50;;;24.00;;
60665;SDS011;59128;44.642;21.188;2024-03-08T03:28:43;39.20;;;27.67;;
60665;SDS011;59128;44.642;21.188;2024-03-08T03:31:09;33.33;;;25.80;;
60665;SDS011;59128;44.642;21.188;2024-03-08T03:33:39;40.22;;;31.08;;
60665;SDS011;59128;44.642;21.188;2024-03-08T03:36:05;35.53;;;28.60;;
60665;SDS011;59128;44.642;21.188;2024-03-08T03:38:33;28.27;;;22.58;;
60665;SDS011;59128;44.642;21.188;2024-03-08T03:40:59;37.20;;;27.35;;
60665;SDS011;59128;44.642;21.188;2024-03-08T03:43:34;24.48;;;20.00;;
60665;SDS011;59128;44.642;21.188;2024-03-08T03:46:02;25.33;;;20.90;;
60665;SDS011;59128;44.642;21.188;2024-03-08T03:48:30;38.38;;;28.45;;
60665;SDS011;59128;44.642;21.188;2024-03-08T03:50:57;29.05;;;22.55;;
60665;SDS011;59128;44.642;21.188;2024-03-08T03:53:23;30.52;;;23.55;;
60665;SDS011;59128;44.642;21.188;2024-03-08T03:55:50;24.05;;;19.83;;
60665;SDS011;59128;44.642;21.188;2024-03-08T03:58:17;24.95;;;20.95;;
60665;SDS011;59128;44.642;21.188;2024-03-08T04:00:47;27.33;;;21.70;;
60665;SDS011;59128;44.642;21.188;2024-03-08T04:03:14;30.95;;;24.00;;
60665;SDS011;59128;44.642;21.188;2024-03-08T04:05:41;23.75;;;19.30;;
60665;SDS011;59128;44.642;21.188;2024-03-08T04:08:07;24.75;;;19.63;;
60665;SDS011;59128;44.642;21.188;2024-03-08T04:10:33;24.27;;;19.13;;
60665;SDS011;59128;44.642;21.188;2024-03-08T04:12:59;23.33;;;18.13;;
60665;SDS011;59128;44.642;21.188;2024-03-08T04:15:26;20.58;;;16.23;;
60665;SDS011;59128;44.642;21.188;2024-03-08T04:17:52;19.77;;;14.87;;
60665;SDS011;59128;44.642;21.188;2024-03-08T04:20:18;20.15;;;16.70;;
60665;SDS011;59128;44.642;21.188;2024-03-08T04:22:44;24.50;;;18.45;;
60665;SDS011;59128;44.642;21.188;2024-03-08T04:25:12;17.67;;;15.07;;
60665;SDS011;59128;44.642;21.188;2024-03-08T04:27:38;18.23;;;15.43;;
60665;SDS011;59128;44.642;21.188;2024-03-08T04:30:04;21.27;;;17.45;;
60665;SDS011;59128;44.642;21.188;2024-03-08T04:32:32;19.48;;;16.17;;
60665;SDS011;59128;44.642;21.188;2024-03-08T04:34:58;20.45;;;16.80;;
60665;SDS011;59128;44.642;21.188;2024-03-08T04:37:26;19.80;;;16.13;;
60665;SDS011;59128;44.642;21.188;2024-03-08T04:39:54;20.75;;;17.88;;
60665;SDS011;59128;44.642;21.188;2024-03-08T04:42:20;17.30;;;14.20;;
60665;SDS011;59128;44.642;21.188;2024-03-08T04:44:46;16.15;;;14.32;;
60665;SDS011;59128;44.642;21.188;2024-03-08T04:47:12;16.63;;;14.30;;
60665;SDS011;59128;44.642;21.188;2024-03-08T04:49:39;18.65;;;16.15;;
60665;SDS011;59128;44.642;21.188;2024-03-08T04:52:05;17.58;;;15.50;;
60665;SDS011;59128;44.642;21.188;2024-03-08T04:54:32;19.45;;;15.93;;
60665;SDS011;59128;44.642;21.188;2024-03-08T04:56:58;18.35;;;15.18;;
60665;SDS011;59128;44.642;21.188;2024-03-08T04:59:25;17.50;;;14.38;;
60665;SDS011;59128;44.642;21.188;2024-03-08T05:01:52;21.48;;;17.50;;
60665;SDS011;59128;44.642;21.188;2024-03-08T05:04:18;20.60;;;16.92;;
60665;SDS011;59128;44.642;21.188;2024-03-08T05:06:44;18.00;;;15.50;;
60665;SDS011;59128;44.642;21.188;2024-03-08T05:09:10;17.25;;;14.45;;
60665;SDS011;59128;44.642;21.188;2024-03-08T05:11:42;20.37;;;16.57;;
60665;SDS011;59128;44.642;21.188;2024-03-08T05:14:09;17.93;;;15.00;;
60665;SDS011;59128;44.642;21.188;2024-03-08T05:16:35;22.90;;;17.60;;
60665;SDS011;59128;44.642;21.188;2024-03-08T05:19:02;20.63;;;16.98;;
60665;SDS011;59128;44.642;21.188;2024-03-08T05:21:28;19.47;;;15.60;;
60665;SDS011;59128;44.642;21.188;2024-03-08T05:23:54;20.20;;;15.68;;
60665;SDS011;59128;44.642;21.188;2024-03-08T05:26:20;21.27;;;16.75;;
60665;SDS011;59128;44.642;21.188;2024-03-08T05:28:47;23.02;;;17.45;;
60665;SDS011;59128;44.642;21.188;2024-03-08T05:31:23;20.33;;;16.30;;
60665;SDS011;59128;44.642;21.188;2024-03-08T05:33:49;20.30;;;16.77;;
60665;SDS011;59128;44.642;21.188;2024-03-08T05:36:15;22.98;;;18.60;;
60665;SDS011;59128;44.642;21.188;2024-03-08T05:38:44;24.13;;;18.87;;
60665;SDS011;59128;44.642;21.188;2024-03-08T05:41:11;24.88;;;19.48;;
60665;SDS011;59128;44.642;21.188;2024-03-08T05:43:37;21.80;;;17.15;;
60665;SDS011;59128;44.642;21.188;2024-03-08T05:46:04;30.30;;;23.23;;
60665;SDS011;59128;44.642;21.188;2024-03-08T05:48:30;26.25;;;18.88;;
60665;SDS011;59128;44.642;21.188;2024-03-08T05:50:59;46.72;;;37.38;;
60665;SDS011;59128;44.642;21.188;2024-03-08T05:53:27;56.17;;;44.80;;
60665;SDS011;59128;44.642;21.188;2024-03-08T05:55:56;43.78;;;35.83;;
60665;SDS011;59128;44.642;21.188;2024-03-08T05:58:22;42.67;;;31.85;;
60665;SDS011;59128;44.642;21.188;2024-03-08T06:00:48;114.17;;;76.83;;
60665;SDS011;59128;44.642;21.188;2024-03-08T06:21:03;24.35;;;18.73;;
60665;SDS011;59128;44.642;21.188;2024-03-08T06:23:31;23.40;;;18.05;;
60665;SDS011;59128;44.642;21.188;2024-03-08T06:25:57;25.98;;;20.25;;
60665;SDS011;59128;44.642;21.188;2024-03-08T06:28:23;25.65;;;18.92;;
60665;SDS011;59128;44.642;21.188;2024-03-08T06:30:49;23.17;;;18.27;;
60665;SDS011;59128;44.642;21.188;2024-03-08T06:33:16;23.08;;;17.27;;
60665;SDS011;59128;44.642;21.188;2024-03-08T06:35:42;22.57;;;17.53;;
60665;SDS011;59128;44.642;21.188;2024-03-08T06:38:08;23.85;;;18.58;;
60665;SDS011;59128;44.642;21.188;2024-03-08T06:40:36;23.77;;;18.58;;
60665;SDS011;59128;44.642;21.188;2024-03-08T06:43:02;25.13;;;19.65;;
60665;SDS011;59128;44.642;21.188;2024-03-08T06:45:31;26.38;;;19.40;;
60665;SDS011;59128;44.642;21.188;2024-03-08T06:47:57;27.70;;;20.93;;
60665;SDS011;59128;44.642;21.188;2024-03-08T06:50:23;26.48;;;20.27;;
60665;SDS011;59128;44.642;21.188;2024-03-08T06:52:49;26.33;;;21.27;;
60665;SDS011;59128;44.642;21.188;2024-03-08T06:55:19;27.42;;;20.48;;
60665;SDS011;59128;44.642;21.188;2024-03-08T06:57:45;25.52;;;19.50;;
60665;SDS011;59128;44.642;21.188;2024-03-08T07:00:11;26.77;;;20.25;;
60665;SDS011;59128;44.642;21.188;2024-03-08T07:02:40;37.42;;;26.77;;
60665;SDS011;59128;44.642;21.188;2024-03-08T07:05:07;30.65;;;21.95;;
60665;SDS011;59128;44.642;21.188;2024-03-08T07:07:35;33.08;;;24.90;;
60665;SDS011;59128;44.642;21.188;2024-03-08T07:10:02;34.13;;;24.53;;
60665;SDS011;59128;44.642;21.188;2024-03-08T07:12:28;31.33;;;23.80;;
60665;SDS011;59128;44.642;21.188;2024-03-08T07:14:54;37.87;;;27.33;;
60665;SDS011;59128;44.642;21.188;2024-03-08T07:17:20;31.95;;;23.25;;
60665;SDS011;59128;44.642;21.188;2024-03-08T07:19:47;34.08;;;25.70;;
60665;SDS011;59128;44.642;21.188;2024-03-08T07:22:14;30.80;;;22.88;;
60665;SDS011;59128;44.642;21.188;2024-03-08T07:24:40;31.77;;;23.98;;
60665;SDS011;59128;44.642;21.188;2024-03-08T07:27:26;30.27;;;24.23;;
60665;SDS011;59128;44.642;21.188;2024-03-08T07:29:53;27.93;;;21.17;;
60665;SDS011;59128;44.642;21.188;2024-03-08T07:32:20;27.17;;;21.20;;
60665;SDS011;59128;44.642;21.188;2024-03-08T07:34:49;34.60;;;24.90;;
60665;SDS011;59128;44.642;21.188;2024-03-08T07:37:16;43.50;;;27.60;;
60665;SDS011;59128;44.642;21.188;2024-03-08T07:39:42;42.15;;;30.10;;
60665;SDS011;59128;44.642;21.188;2024-03-08T07:42:08;41.55;;;28.17;;
60665;SDS011;59128;44.642;21.188;2024-03-08T07:44:35;38.10;;;28.30;;
60665;SDS011;59128;44.642;21.188;2024-03-08T07:47:01;122.10;;;58.30;;
60665;SDS011;59128;44.642;21.188;2024-03-08T07:49:28;59.17;;;38.92;;
60665;SDS011;59128;44.642;21.188;2024-03-08T07:51:55;41.20;;;29.42;;
60665;SDS011;59128;44.642;21.188;2024-03-08T07:54:21;32.03;;;22.67;;
60665;SDS011;59128;44.642;21.188;2024-03-08T07:56:47;30.73;;;24.20;;
60665;SDS011;59128;44.642;21.188;2024-03-08T07:59:13;27.70;;;20.55;;
60665;SDS011;59128;44.642;21.188;2024-03-08T08:01:40;31.40;;;23.42;;
60665;SDS011;59128;44.642;21.188;2024-03-08T08:04:06;26.08;;;20.23;;
60665;SDS011;59128;44.642;21.188;2024-03-08T08:06:37;27.77;;;21.27;;
60665;SDS011;59128;44.642;21.188;2024-03-08T08:09:05;30.05;;;22.17;;
60665;SDS011;59128;44.642;21.188;2024-03-08T08:11:39;26.50;;;20.77;;
60665;SDS011;59128;44.642;21.188;2024-03-08T08:14:06;26.85;;;22.13;;
60665;SDS011;59128;44.642;21.188;2024-03-08T08:16:34;26.92;;;20.73;;
60665;SDS011;59128;44.642;21.188;2024-03-08T08:19:02;25.92;;;19.52;;
60665;SDS011;59128;44.642;21.188;2024-03-08T08:21:33;29.57;;;22.73;;
60665;SDS011;59128;44.642;21.188;2024-03-08T08:23:59;27.38;;;21.75;;
60665;SDS011;59128;44.642;21.188;2024-03-08T08:26:25;23.45;;;18.25;;
60665;SDS011;59128;44.642;21.188;2024-03-08T08:28:51;22.05;;;16.98;;
60665;SDS011;59128;44.642;21.188;2024-03-08T08:31:18;23.00;;;18.42;;
60665;SDS011;59128;44.642;21.188;2024-03-08T08:33:44;20.58;;;16.65;;
60665;SDS011;59128;44.642;21.188;2024-03-08T08:36:10;18.20;;;14.45;;
60665;SDS011;59128;44.642;21.188;2024-03-08T08:38:36;24.42;;;18.55;;
60665;SDS011;59128;44.642;21.188;2024-03-08T08:41:03;18.80;;;15.55;;
60665;SDS011;59128;44.642;21.188;2024-03-08T08:43:31;26.20;;;20.35;;
60665;SDS011;59128;44.642;21.188;2024-03-08T08:45:58;26.48;;;20.77;;
60665;SDS011;59128;44.642;21.188;2024-03-08T08:48:24;27.63;;;21.25;;
60665;SDS011;59128;44.642;21.188;2024-03-08T08:50:51;20.07;;;16.33;;
60665;SDS011;59128;44.642;21.188;2024-03-08T08:53:17;22.08;;;17.65;;
60665;SDS011;59128;44.642;21.188;2024-03-08T08:55:43;18.45;;;14.88;;
60665;SDS011;59128;44.642;21.188;2024-03-08T08:58:11;20.10;;;15.88;;
60665;SDS011;59128;44.642;21.188;2024-03-08T09:00:37;17.60;;;13.65;;
60665;SDS011;59128;44.642;21.188;2024-03-08T09:03:04;14.80;;;11.90;;
60665;SDS011;59128;44.642;21.188;2024-03-08T09:05:31;22.33;;;17.13;;
60665;SDS011;59128;44.642;21.188;2024-03-08T09:07:59;17.52;;;14.27;;
60665;SDS011;59128;44.642;21.188;2024-03-08T09:10:25;27.70;;;20.85;;
60665;SDS011;59128;44.642;21.188;2024-03-08T09:12:52;17.00;;;13.07;;
60665;SDS011;59128;44.642;21.188;2024-03-08T09:15:19;13.73;;;11.50;;
60665;SDS011;59128;44.642;21.188;2024-03-08T09:17:46;13.35;;;11.23;;
60665;SDS011;59128;44.642;21.188;2024-03-08T09:20:13;17.00;;;13.25;;
60665;SDS011;59128;44.642;21.188;2024-03-08T09:22:40;17.38;;;12.23;;
60665;SDS011;59128;44.642;21.188;2024-03-08T09:25:06;13.98;;;11.38;;
60665;SDS011;59128;44.642;21.188;2024-03-08T09:27:34;13.27;;;11.88;;
60665;SDS011;59128;44.642;21.188;2024-03-08T09:30:00;17.40;;;14.35;;
60665;SDS011;59128;44.642;21.188;2024-03-08T09:32:26;18.63;;;14.75;;
60665;SDS011;59128;44.642;21.188;2024-03-08T09:34:52;13.60;;;11.20;;
60665;SDS011;59128;44.642;21.188;2024-03-08T09:37:18;18.08;;;12.27;;
60665;SDS011;59128;44.642;21.188;2024-03-08T09:39:45;16.80;;;13.63;;
60665;SDS011;59128;44.642;21.188;2024-03-08T09:42:11;14.40;;;12.43;;
60665;SDS011;59128;44.642;21.188;2024-03-08T09:44:44;13.15;;;10.60;;
60665;SDS011;59128;44.642;21.188;2024-03-08T09:47:11;13.77;;;11.50;;
60665;SDS011;59128;44.642;21.188;2024-03-08T09:49:39;12.65;;;11.35;;
60665;SDS011;59128;44.642;21.188;2024-03-08T09:52:06;15.82;;;13.30;;
60665;SDS011;59128;44.642;21.188;2024-03-08T09:54:32;12.00;;;9.98;;
60665;SDS011;59128;44.642;21.188;2024-03-08T09:56:58;12.65;;;11.10;;
60665;SDS011;59128;44.642;21.188;2024-03-08T09:59:24;10.30;;;9.10;;
60665;SDS011;59128;44.642;21.188;2024-03-08T10:01:51;13.45;;;10.00;;
60665;SDS011;59128;44.642;21.188;2024-03-08T10:04:18;11.32;;;9.18;;
60665;SDS011;59128;44.642;21.188;2024-03-08T10:06:45;10.43;;;9.32;;
60665;SDS011;59128;44.642;21.188;2024-03-08T10:09:12;13.77;;;10.55;;
60665;SDS011;59128;44.642;21.188;2024-03-08T10:11:39;9.80;;;8.52;;
60665;SDS011;59128;44.642;21.188;2024-03-08T10:14:07;11.88;;;9.60;;
60665;SDS011;59128;44.642;21.188;2024-03-08T10:16:33;10.93;;;9.70;;
60665;SDS011;59128;44.642;21.188;2024-03-08T10:19:00;11.82;;;10.63;;
60665;SDS011;59128;44.642;21.188;2024-03-08T10:21:26;10.73;;;9.63;;
60665;SDS011;59128;44.642;21.188;2024-03-08T10:23:53;10.63;;;9.43;;
60665;SDS011;59128;44.642;21.188;2024-03-08T10:26:19;10.05;;;8.77;;
60665;SDS011;59128;44.642;21.188;2024-03-08T10:28:50;15.55;;;12.50;;
60665;SDS011;59128;44.642;21.188;2024-03-08T10:31:18;11.10;;;9.70;;
60665;SDS011;59128;44.642;21.188;2024-03-08T10:33:44;12.57;;;11.27;;
60665;SDS011;59128;44.642;21.188;2024-03-08T10:36:11;12.37;;;10.70;;
60665;SDS011;59128;44.642;21.188;2024-03-08T10:38:39;13.38;;;10.98;;
60665;SDS011;59128;44.642;21.188;2024-03-08T10:41:12;13.55;;;11.40;;
60665;SDS011;59128;44.642;21.188;2024-03-08T10:43:43;10.52;;;9.38;;
60665;SDS011;59128;44.642;21.188;2024-03-08T10:48:44;9.60;;;8.60;;
60665;SDS011;59128;44.642;21.188;2024-03-08T10:51:14;10.07;;;8.73;;
60665;SDS011;59128;44.642;21.188;2024-03-08T10:53:41;22.17;;;14.82;;
60665;SDS011;59128;44.642;21.188;2024-03-08T10:56:07;13.50;;;10.90;;
60665;SDS011;59128;44.642;21.188;2024-03-08T10:58:35;37.20;;;22.58;;
60665;SDS011;59128;44.642;21.188;2024-03-08T11:01:01;47.10;;;27.42;;
60665;SDS011;59128;44.642;21.188;2024-03-08T11:06:07;20.83;;;13.95;;
60665;SDS011;59128;44.642;21.188;2024-03-08T11:08:37;33.95;;;21.48;;
60665;SDS011;59128;44.642;21.188;2024-03-08T11:11:04;27.65;;;19.23;;
60665;SDS011;59128;44.642;21.188;2024-03-08T11:13:36;24.35;;;16.70;;
60665;SDS011;59128;44.642;21.188;2024-03-08T11:16:09;9.93;;;8.85;;
60665;SDS011;59128;44.642;21.188;2024-03-08T11:18:36;7.95;;;7.10;;
60665;SDS011;59128;44.642;21.188;2024-03-08T11:21:08;34.77;;;24.13;;
60665;SDS011;59128;44.642;21.188;2024-03-08T11:23:37;34.70;;;25.15;;
60665;SDS011;59128;44.642;21.188;2024-03-08T11:26:17;25.05;;;18.27;;
60665;SDS011;59128;44.642;21.188;2024-03-08T11:28:43;20.52;;;14.50;;
60665;SDS011;59128;44.642;21.188;2024-03-08T11:33:38;8.75;;;7.85;;
60665;SDS011;59128;44.642;21.188;2024-03-08T11:38:47;16.73;;;12.88;;
60665;SDS011;59128;44.642;21.188;2024-03-08T11:41:14;26.20;;;20.25;;
60665;SDS011;59128;44.642;21.188;2024-03-08T11:43:40;23.67;;;18.33;;
60665;SDS011;59128;44.642;21.188;2024-03-08T11:46:10;9.10;;;7.60;;
60665;SDS011;59128;44.642;21.188;2024-03-08T11:48:39;8.73;;;7.55;;
60665;SDS011;59128;44.642;21.188;2024-03-08T11:51:10;16.33;;;13.45;;
60665;SDS011;59128;44.642;21.188;2024-03-08T11:53:37;28.45;;;23.23;;
60665;SDS011;59128;44.642;21.188;2024-03-08T11:56:10;25.50;;;20.07;;
60665;SDS011;59128;44.642;21.188;2024-03-08T11:58:37;40.72;;;29.38;;
60665;SDS011;59128;44.642;21.188;2024-03-08T12:01:06;29.98;;;21.95;;
60665;SDS011;59128;44.642;21.188;2024-03-08T12:03:37;10.90;;;8.13;;
60665;SDS011;59128;44.642;21.188;2024-03-08T12:06:03;10.20;;;8.33;;
60665;SDS011;59128;44.642;21.188;2024-03-08T12:08:32;30.33;;;22.02;;
60665;SDS011;59128;44.642;21.188;2024-03-08T12:10:58;13.88;;;11.80;;
60665;SDS011;59128;44.642;21.188;2024-03-08T12:13:28;15.30;;;12.52;;
60665;SDS011;59128;44.642;21.188;2024-03-08T12:15:58;13.60;;;11.10;;
60665;SDS011;59128;44.642;21.188;2024-03-08T12:18:25;25.58;;;19.98;;
60665;SDS011;59128;44.642;21.188;2024-03-08T12:20:51;27.30;;;20.58;;
60665;SDS011;59128;44.642;21.188;2024-03-08T12:23:17;11.50;;;10.17;;
60665;SDS011;59128;44.642;21.188;2024-03-08T12:25:43;21.50;;;16.73;;
60665;SDS011;59128;44.642;21.188;2024-03-08T12:28:10;12.88;;;10.82;;
60665;SDS011;59128;44.642;21.188;2024-03-08T12:30:47;11.13;;;9.73;;
60665;SDS011;59128;44.642;21.188;2024-03-08T12:33:13;11.65;;;9.70;;
60665;SDS011;59128;44.642;21.188;2024-03-08T12:35:39;14.20;;;12.27;;
60665;SDS011;59128;44.642;21.188;2024-03-08T12:38:07;31.07;;;22.93;;
60665;SDS011;59128;44.642;21.188;2024-03-08T12:40:33;17.40;;;13.45;;
60665;SDS011;59128;44.642;21.188;2024-03-08T12:43:00;11.13;;;9.00;;
60665;SDS011;59128;44.642;21.188;2024-03-08T12:45:26;16.88;;;12.85;;
60665;SDS011;59128;44.642;21.188;2024-03-08T12:47:53;15.27;;;11.98;;
60665;SDS011;59128;44.642;21.188;2024-03-08T12:50:20;30.25;;;22.65;;
60665;SDS011;59128;44.642;21.188;2024-03-08T12:52:46;12.85;;;10.88;;
60665;SDS011;59128;44.642;21.188;2024-03-08T12:55:13;11.68;;;9.85;;
60665;SDS011;59128;44.642;21.188;2024-03-08T12:57:41;43.35;;;29.83;;
60665;SDS011;59128;44.642;21.188;2024-03-08T13:00:07;39.90;;;27.90;;
60665;SDS011;59128;44.642;21.188;2024-03-08T13:02:38;15.02;;;12.10;;
60665;SDS011;59128;44.642;21.188;2024-03-08T13:05:04;45.25;;;31.75;;
60665;SDS011;59128;44.642;21.188;2024-03-08T13:07:30;27.90;;;20.92;;
60665;SDS011;59128;44.642;21.188;2024-03-08T13:09:57;38.05;;;29.63;;
60665;SDS011;59128;44.642;21.188;2024-03-08T13:12:24;30.35;;;23.60;;
60665;SDS011;59128;44.642;21.188;2024-03-08T13:14:51;22.65;;;18.33;;
60665;SDS011;59128;44.642;21.188;2024-03-08T13:17:17;34.90;;;26.03;;
60665;SDS011;59128;44.642;21.188;2024-03-08T13:19:46;29.08;;;23.27;;
60665;SDS011;59128;44.642;21.188;2024-03-08T13:22:12;28.83;;;22.83;;
60665;SDS011;59128;44.642;21.188;2024-03-08T13:24:41;16.75;;;14.10;;
60665;SDS011;59128;44.642;21.188;2024-03-08T13:27:08;20.50;;;16.30;;
60665;SDS011;59128;44.642;21.188;2024-03-08T13:29:49;23.75;;;18.75;;
60665;SDS011;59128;44.642;21.188;2024-03-08T13:32:15;22.02;;;17.98;;
60665;SDS011;59128;44.642;21.188;2024-03-08T13:34:45;15.50;;;13.10;;
60665;SDS011;59128;44.642;21.188;2024-03-08T13:37:12;22.63;;;18.17;;
60665;SDS011;59128;44.642;21.188;2024-03-08T13:39:41;21.15;;;17.60;;
60665;SDS011;59128;44.642;21.188;2024-03-08T13:42:15;16.83;;;13.57;;
60665;SDS011;59128;44.642;21.188;2024-03-08T13:44:48;17.83;;;14.60;;
60665;SDS011;59128;44.642;21.188;2024-03-08T13:47:18;15.32;;;13.32;;
60665;SDS011;59128;44.642;21.188;2024-03-08T13:49:44;20.08;;;17.52;;
60665;SDS011;59128;44.642;21.188;2024-03-08T13:52:11;16.02;;;13.80;;
60665;SDS011;59128;44.642;21.188;2024-03-08T13:54:41;19.45;;;15.32;;
60665;SDS011;59128;44.642;21.188;2024-03-08T13:57:07;18.23;;;14.55;;
60665;SDS011;59128;44.642;21.188;2024-03-08T13:59:33;16.23;;;13.27;;
60665;SDS011;59128;44.642;21.188;2024-03-08T14:02:00;16.93;;;14.07;;
60665;SDS011;59128;44.642;21.188;2024-03-08T14:04:29;19.75;;;16.42;;
60665;SDS011;59128;44.642;21.188;2024-03-08T14:06:55;16.95;;;14.82;;
60665;SDS011;59128;44.642;21.188;2024-03-08T14:09:26;28.58;;;23.42;;
60665;SDS011;59128;44.642;21.188;2024-03-08T14:11:54;19.05;;;16.27;;
60665;SDS011;59128;44.642;21.188;2024-03-08T14:14:20;24.00;;;19.25;;
60665;SDS011;59128;44.642;21.188;2024-03-08T14:16:48;18.77;;;15.15;;
60665;SDS011;59128;44.642;21.188;2024-03-08T14:19:17;19.17;;;16.10;;
60665;SDS011;59128;44.642;21.188;2024-03-08T14:21:43;17.38;;;14.23;;
60665;SDS011;59128;44.642;21.188;2024-03-08T14:24:09;18.70;;;15.03;;
60665;SDS011;59128;44.642;21.188;2024-03-08T14:26:35;20.13;;;16.15;;
60665;SDS011;59128;44.642;21.188;2024-03-08T14:29:03;31.30;;;23.45;;
60665;SDS011;59128;44.642;21.188;2024-03-08T14:31:30;18.15;;;14.80;;
60665;SDS011;59128;44.642;21.188;2024-03-08T14:33:56;17.35;;;14.75;;
60665;SDS011;59128;44.642;21.188;2024-03-08T14:36:23;16.00;;;12.95;;
60665;SDS011;59128;44.642;21.188;2024-03-08T14:38:50;17.10;;;13.43;;